createdAt,value
2022-07-29T07:23:00.707Z,20.98
2022-07-29T07:25:28.635Z,21.05
2022-07-29T07:28:05.191Z,20.57
2022-07-29T07:30:32.626Z,20.79
2022-07-29T07:33:00.832Z,20.81
2022-07-29T07:35:28.750Z,20.88
2022-07-29T07:37:57.324Z,20.95
2022-07-29T07:40:49.221Z,21.16
2022-07-29T07:43:24.784Z,21.02
2022-07-29T07:46:08.027Z,20.74
2022-07-29T07:48:38.351Z,21.11
2022-07-29T07:51:05.636Z,20.73
2022-07-29T07:53:32.893Z,20.86
2022-07-29T07:56:10.468Z,21.29
2022-07-29T07:58:39.427Z,20.88
2022-07-29T08:01:06.738Z,21.19
2022-07-29T08:03:34.458Z,21.30
2022-07-29T08:06:02.122Z,21.61
2022-07-29T08:08:29.484Z,21.68
2022-07-29T08:10:57.312Z,21.83
2022-07-29T08:13:29.185Z,21.82
2022-07-29T08:16:01.180Z,21.64
2022-07-29T08:18:30.583Z,21.98
2022-07-29T08:20:58.125Z,22.02
2022-07-29T08:23:25.598Z,21.98
2022-07-29T08:25:54.888Z,21.98
2022-07-29T08:28:25.820Z,22.18
2022-07-29T08:30:53.638Z,22.03
2022-07-29T08:33:20.917Z,22.49
2022-07-29T08:35:48.333Z,22.46
2022-07-29T08:38:15.580Z,22.56
2022-07-29T08:40:42.920Z,22.37
2022-07-29T08:43:10.321Z,22.79
2022-07-29T08:45:48.247Z,22.42
2022-07-29T08:48:23.989Z,22.45
2022-07-29T08:50:56.768Z,22.57
2022-07-29T08:53:27.775Z,22.79
2022-07-29T08:55:56.004Z,22.89
2022-07-29T08:58:24.895Z,22.71
2022-07-29T09:00:55.572Z,22.72
2022-07-29T09:03:33.209Z,22.86
2022-07-29T09:06:00.787Z,23.22
2022-07-29T09:08:29.225Z,23.12
2022-07-29T09:11:01.078Z,22.90
2022-07-29T09:13:31.457Z,22.65
2022-07-29T09:15:58.786Z,23.29
2022-07-29T09:18:47.259Z,23.48
2022-07-29T09:21:36.080Z,23.65
2022-07-29T13:27:22.892Z,27.33
2022-07-29T13:29:53.247Z,27.00
2022-07-29T13:32:28.486Z,27.31
2022-07-29T13:34:57.976Z,27.67
2022-07-29T13:37:25.240Z,27.77
2022-07-29T13:39:53.526Z,28.07
2022-07-29T13:42:20.754Z,28.43
2022-07-29T13:44:49.542Z,28.44
2022-07-29T13:47:17.127Z,28.34
2022-07-29T13:49:44.483Z,27.96
2022-07-29T13:52:11.641Z,28.15
2022-07-29T13:54:42.704Z,28.35
2022-07-29T13:57:11.917Z,28.64
2022-07-29T13:59:41.149Z,27.63
2022-07-29T14:02:09.844Z,28.14
2022-07-29T14:04:39.571Z,27.83
2022-07-29T14:07:07.738Z,27.83
2022-07-29T14:09:41.071Z,26.88
2022-07-29T14:12:09.685Z,26.64
2022-07-29T14:14:37.530Z,26.51
2022-07-29T14:17:07.284Z,26.59
2022-07-29T14:19:39.317Z,26.89
2022-07-29T14:22:08.758Z,27.00
2022-07-29T14:24:37.772Z,26.43
2022-07-29T14:27:05.452Z,27.10
2022-07-29T14:29:38.326Z,27.58
2022-07-29T14:32:08.097Z,27.81
2022-07-29T14:34:36.870Z,28.81
2022-07-29T14:37:06.474Z,28.63
2022-07-29T14:39:39.323Z,28.33
2022-07-29T14:42:11.590Z,28.32
2022-07-29T14:44:41.991Z,28.76
2022-07-29T14:47:09.351Z,28.83
2022-07-29T14:49:36.463Z,28.18
2022-07-29T14:52:05.194Z,28.62
2022-07-29T14:54:32.295Z,29.41
2022-07-29T14:56:59.476Z,29.24
2022-07-29T14:59:27.471Z,29.30
2022-07-29T15:01:54.964Z,31.97
2022-07-29T15:04:22.493Z,37.25
2022-07-29T15:06:49.739Z,38.00
2022-07-29T15:09:16.885Z,38.18
2022-07-29T15:11:44.018Z,38.97
2022-07-29T15:14:11.239Z,41.23
2022-07-29T15:16:39.485Z,40.07
2022-07-29T15:19:11.099Z,42.11
2022-07-29T15:21:41.315Z,43.49
2022-07-29T15:24:18.761Z,43.64
2022-07-29T15:26:46.799Z,41.77
2022-07-29T15:29:14.574Z,40.99
2022-07-29T15:31:41.801Z,44.54
2022-07-29T15:34:09.013Z,45.46
2022-07-29T15:36:51.539Z,41.65
2022-07-29T15:39:21.193Z,40.38
2022-07-29T15:41:48.368Z,37.11
2022-07-29T15:44:15.494Z,38.40
2022-07-29T15:47:02.049Z,36.75
2022-07-29T15:49:47.666Z,41.11
2022-07-29T15:52:25.187Z,41.41
2022-07-29T15:54:55.509Z,34.49
2022-07-29T15:57:23.602Z,35.23
2022-07-29T15:59:51.825Z,31.81
2022-07-29T16:02:19.629Z,30.48
2022-07-29T16:04:47.389Z,34.70
2022-07-29T16:07:15.442Z,38.36
2022-07-29T16:09:43.481Z,40.07
2022-07-29T16:12:15.442Z,39.20
2022-07-29T16:14:44.355Z,36.22
2022-07-29T16:17:14.347Z,36.35
2022-07-29T16:19:43.522Z,38.23
2022-07-29T16:22:10.904Z,38.13
2022-07-29T16:24:38.890Z,37.46
2022-07-29T16:27:06.045Z,37.36
2022-07-29T16:29:33.404Z,38.28
2022-07-29T16:32:01.801Z,39.72
2022-07-29T16:34:29.557Z,38.50
2022-07-29T16:36:56.713Z,37.24
2022-07-29T16:39:23.853Z,37.18
2022-07-29T16:41:50.934Z,36.07
2022-07-29T16:44:18.098Z,34.92
2022-07-29T16:46:45.544Z,36.37
2022-07-29T16:49:19.074Z,34.70
2022-07-29T16:51:47.827Z,34.81
2022-07-29T16:54:15.342Z,31.53
2022-07-29T16:56:42.473Z,29.64
2022-07-29T16:59:09.623Z,28.42
2022-07-29T17:01:36.832Z,28.11
2022-07-29T17:04:06.845Z,27.40
2022-07-29T17:06:39.623Z,27.48
2022-07-29T17:09:08.981Z,27.53
2022-07-29T17:11:52.780Z,27.48
2022-07-29T17:14:27.119Z,27.17
2022-07-29T17:17:01.109Z,26.86
2022-07-29T17:19:30.787Z,26.91
2022-07-29T17:22:05.032Z,27.08
2022-07-29T17:24:36.286Z,26.69
2022-07-29T17:27:03.438Z,26.70
2022-07-29T17:29:30.649Z,26.60
2022-07-29T17:31:59.416Z,26.69
2022-07-29T17:34:26.692Z,26.73
2022-07-29T17:36:53.768Z,26.13
2022-07-29T17:39:21.617Z,26.17
2022-07-29T17:41:48.815Z,26.29
2022-07-29T17:44:15.995Z,26.45
2022-07-29T17:46:43.186Z,26.15
2022-07-29T17:49:10.507Z,26.02
2022-07-29T17:51:37.630Z,26.12
2022-07-29T17:54:04.904Z,26.11
2022-07-29T17:56:32.043Z,26.30
2022-07-29T17:59:01.451Z,25.85
2022-07-29T18:01:28.954Z,26.00
2022-07-29T18:03:59.989Z,25.84
2022-07-29T18:06:27.432Z,25.70
2022-07-29T18:08:55.335Z,25.35
2022-07-29T18:11:23.522Z,25.28
2022-07-29T18:13:50.906Z,25.27
2022-07-29T18:16:18.573Z,25.28
2022-07-29T18:18:45.949Z,24.96
2022-07-29T18:21:13.486Z,25.08
2022-07-29T18:23:41.514Z,24.96
2022-07-29T18:26:09.424Z,24.75
2022-07-29T18:28:36.604Z,24.45
2022-07-29T18:31:03.952Z,24.33
2022-07-29T18:33:32.555Z,24.07
2022-07-29T18:36:11.577Z,23.67
2022-07-29T18:38:41.748Z,23.60
2022-07-29T18:41:08.884Z,23.49
2022-07-29T18:43:36.261Z,23.51
2022-07-29T18:46:05.259Z,23.48
2022-07-29T18:48:34.011Z,23.36
2022-07-29T18:51:01.260Z,23.31
2022-07-29T18:53:28.414Z,23.19
2022-07-29T18:56:00.288Z,23.16
2022-07-29T18:58:27.591Z,23.06
2022-07-29T19:00:54.698Z,23.11
2022-07-29T19:03:21.797Z,23.17
2022-07-29T19:05:49.427Z,22.97
2022-07-29T19:08:16.561Z,22.67
2022-07-29T19:10:43.641Z,22.64
2022-07-29T19:13:13.372Z,22.52
2022-07-29T19:15:40.793Z,22.48
2022-07-29T19:18:07.950Z,22.38
2022-07-29T19:20:35.885Z,22.35
2022-07-29T19:23:03.528Z,22.63
2022-07-29T19:25:30.859Z,22.09
2022-07-29T19:28:03.043Z,22.11
2022-07-29T19:30:30.144Z,21.91
2022-07-29T19:32:57.325Z,21.70
2022-07-29T19:35:24.891Z,21.93
2022-07-29T19:37:52.944Z,21.53
2022-07-29T19:40:20.571Z,21.33
2022-07-29T19:45:50.786Z,21.27
2022-07-29T19:48:17.922Z,21.42
2022-07-29T19:50:45.144Z,21.32
2022-07-29T19:53:12.474Z,21.09
2022-07-29T19:55:39.653Z,21.11
2022-07-29T19:58:06.809Z,20.90
2022-07-29T20:00:35.560Z,21.01
2022-07-29T20:03:04.658Z,21.14
2022-07-29T20:05:31.954Z,21.16
2022-07-29T20:07:59.202Z,21.26
2022-07-29T20:10:26.635Z,21.28
2022-07-29T20:12:55.123Z,21.08
2022-07-29T20:15:22.923Z,20.87
2022-07-29T20:17:52.870Z,20.73
2022-07-29T20:20:24.082Z,20.79
2022-07-29T20:22:51.201Z,20.82
2022-07-29T20:25:18.362Z,20.55
2022-07-29T20:27:45.507Z,20.73
2022-07-29T20:30:14.061Z,20.53
2022-07-29T20:32:41.458Z,20.43
2022-07-29T20:35:09.977Z,20.16
2022-07-29T20:37:52.303Z,20.28
2022-07-29T20:40:24.430Z,20.36
2022-07-29T20:42:51.905Z,20.53
2022-07-29T20:45:19.985Z,20.58
2022-07-29T20:47:47.108Z,20.51
2022-07-29T20:50:14.868Z,20.33
2022-07-29T20:52:43.980Z,20.32
2022-07-29T20:55:11.027Z,20.09
2022-07-29T20:57:38.885Z,20.25
2022-07-29T21:00:07.578Z,20.41
2022-07-29T21:02:34.963Z,20.62
2022-07-29T21:05:02.209Z,20.50
2022-07-29T21:07:29.428Z,20.41
2022-07-29T21:09:56.563Z,20.38
2022-07-29T21:12:23.971Z,20.45
2022-07-29T21:14:52.015Z,20.21
2022-07-29T21:17:22.577Z,19.98
2022-07-29T21:19:52.645Z,19.97
2022-07-29T21:22:21.842Z,20.10
2022-07-29T21:24:49.174Z,20.19
2022-07-29T21:27:35.616Z,20.33
2022-07-29T21:30:08.306Z,20.20
2022-07-29T21:32:35.561Z,20.06
2022-07-29T21:35:02.792Z,20.29
2022-07-29T21:37:42.525Z,20.37
2022-07-29T21:40:10.279Z,20.34
2022-07-29T21:42:37.431Z,20.26
2022-07-29T21:45:05.677Z,20.33
2022-07-29T21:47:32.805Z,20.30
2022-07-29T21:49:59.932Z,20.25
2022-07-29T21:52:28.101Z,20.33
2022-07-29T21:54:55.949Z,20.42
2022-07-29T21:57:23.427Z,20.33
2022-07-29T21:59:50.601Z,20.31
2022-07-29T22:02:17.758Z,20.17
2022-07-29T22:04:44.891Z,20.07
2022-07-29T22:07:12.201Z,19.91
2022-07-29T22:09:42.304Z,19.84
2022-07-29T22:12:09.622Z,20.05
2022-07-29T22:14:37.048Z,19.67
2022-07-29T22:17:04.387Z,19.84
2022-07-29T22:19:31.722Z,19.74
2022-07-29T22:21:58.880Z,19.72
2022-07-29T22:24:25.966Z,19.88
2022-07-29T22:26:53.102Z,19.57
2022-07-29T22:29:20.226Z,19.45
2022-07-29T22:31:47.412Z,19.00
2022-07-29T22:34:14.651Z,19.05
2022-07-29T22:36:41.906Z,19.05
2022-07-29T22:39:08.998Z,19.07
2022-07-29T22:41:36.144Z,19.11
2022-07-29T22:44:03.781Z,18.84
2022-07-29T22:46:33.294Z,18.69
2022-07-29T22:49:00.512Z,18.70
2022-07-29T22:51:27.791Z,19.12
2022-07-29T22:53:54.925Z,19.04
2022-07-29T22:56:22.139Z,19.03
2022-07-29T22:58:49.697Z,19.08
2022-07-29T23:01:17.607Z,19.04
2022-07-29T23:04:05.015Z,19.22
2022-07-29T23:06:32.152Z,18.88
2022-07-29T23:08:59.288Z,18.74
2022-07-29T23:11:26.879Z,18.78
2022-07-29T23:13:54.001Z,19.07
2022-07-29T23:16:26.477Z,18.93
2022-07-29T23:18:54.868Z,18.92
2022-07-29T23:21:22.095Z,18.86
2022-07-29T23:23:49.248Z,18.91
2022-07-29T23:26:16.779Z,18.87
2022-07-29T23:28:44.745Z,18.92
2022-07-29T23:31:13.443Z,18.98
2022-07-29T23:33:43.695Z,18.80
2022-07-29T23:36:10.863Z,18.83
2022-07-29T23:38:40.997Z,18.82
2022-07-29T23:41:09.647Z,18.90
2022-07-29T23:43:37.365Z,18.77
2022-07-29T23:46:04.581Z,18.65
2022-07-29T23:48:33.824Z,18.08
2022-07-29T23:51:01.150Z,17.95
2022-07-29T23:53:28.626Z,17.55
2022-07-29T23:55:56.183Z,18.09
2022-07-29T23:58:23.856Z,17.82
